PST,Max TemperatureF,Mean TemperatureF,Min TemperatureF,Max Dew PointF,MeanDew PointF,Min DewpointF,Max Humidity, Mean Humidity, Min Humidity, Max Sea Level PressureIn, Mean Sea Level PressureIn, Min Sea Level PressureIn, Max VisibilityMiles, Mean VisibilityMiles, Min VisibilityMiles, Max Wind SpeedMPH, Mean Wind SpeedMPH, Max Gust SpeedMPH,PrecipitationIn, CloudCover, Events, WindDirDegrees
2013-2-1,59,48,37,45,41,37,100,81,42,30.25,30.20,30.17,10,10,10,6,2,,0.00,0,,63
2013-2-2,48,44,39,48,45,40,100,99,83,30.34,30.29,30.21,10,9,1,8,3,,0.00,5,,144
2013-2-3,50,46,41,47,44,41,100,96,83,30.35,30.29,30.24,10,10,8,13,4,,0.00,3,,344
2013-2-4,48,42,37,48,44,37,100,100,93,30.22,30.14,30.08,10,8,5,9,3,,0.00,5,,160
2013-2-5,48,46,43,48,46,44,100,100,100,30.20,30.10,30.04,10,2,0,10,5,,0.51,8,Fog-Rain,168
2013-2-6,48,44,39,48,46,40,100,100,96,30.20,30.13,30.01,9,4,0,17,7,,0.44,8,Fog-Rain,169
2013-2-7,41,38,36,41,39,37,100,100,100,30.09,30.06,30.02,10,8,1,13,5,,0.27,6,Rain,127
2013-2-8,52,43,34,39,35,31,100,80,45,30.25,30.18,30.10,10,10,10,13,4,,0.00,0,,7
2013-2-9,54,45,36,39,35,30,89,67,50,30.25,30.22,30.18,10,10,10,9,6,,0.00,0,,349
2013-2-10,63,53,43,43,36,30,82,60,29,30.22,30.19,30.14,10,10,8,8,5,,0.00,0,,344
2013-2-11,63,50,36,40,37,34,100,69,33,30.40,30.28,30.20,10,9,5,12,2,,0.00,0,,346
2013-2-12,59,52,45,48,43,39,93,75,46,30.48,30.44,30.40,10,10,9,12,5,,0.00,1,,351
2013-2-13,59,49,39,50,45,40,100,81,64,30.45,30.42,30.38,10,10,9,12,3,,0.00,0,,342
2013-2-14,68,58,48,44,38,33,77,47,26,30.43,30.35,30.26,10,10,10,13,6,,0.00,0,,40
2013-2-15,65,56,46,42,38,33,80,51,34,30.29,30.25,30.21,10,10,10,10,7,,0.00,0,,122
2013-2-16,54,46,37,49,43,34,100,95,61,30.31,30.27,30.22,10,5,0,13,2,,0.00,3,Fog,336
2013-2-17,52,45,38,43,36,29,100,71,50,30.25,30.16,30.07,10,9,7,14,7,,0.00,0,,349
2013-2-18,45,42,39,43,41,39,100,97,80,30.08,30.00,29.83,10,7,1,14,3,,0.02,7,Rain,146
2013-2-19,43,40,36,43,39,36,100,99,87,30.03,29.80,29.70,10,7,2,15,6,21,0.29,6,Rain,334
2013-2-20,47,42,36,43,39,35,100,92,68,30.18,30.14,30.04,10,8,2,12,5,,0.01,5,Rain,351
2013-2-21,48,41,34,41,38,34,100,89,63,30.32,30.28,30.21,10,9,8,10,3,,0.00,4,,335
2013-2-22,46,42,39,45,43,40,100,99,87,30.32,30.23,30.17,10,4,0,15,7,18,0.60,7,Fog-Rain,156
2013-2-23,46,41,36,43,39,31,100,90,66,30.45,30.39,30.28,10,7,2,16,6,,0.04,4,Rain,359
2013-2-24,52,44,36,43,37,29,100,79,52,30.45,30.35,30.29,10,9,7,9,4,,0.00,2,,7
2013-2-25,48,43,38,44,40,32,100,93,68,30.41,30.34,30.29,10,6,1,12,5,,0.31,5,Rain,52
2013-2-26,50,42,34,40,35,30,100,78,52,30.40,30.33,30.29,10,9,5,9,5,,0.00,0,,313
2013-2-27,50,43,36,48,42,31,100,91,47,30.38,30.35,30.32,10,5,0,9,5,,0.60,7,Fog-Rain,132
2013-2-28,50,48,47,50,49,48,100,100,100,30.54,30.47,30.36,4,0,0,12,8,,2.01,8,Fog-Rain,148